sensor_id;sensor_type;location;lat;lon;timestamp;P1;durP1;ratioP1;P2;durP2;ratioP2
18125;SDS011;53956;52.442;13.284;2022-11-15T00:00:10;49.17;;;30.57;;
18125;SDS011;53956;52.442;13.284;2022-11-15T00:02:57;53.53;;;33.07;;
18125;SDS011;53956;52.442;13.284;2022-11-15T00:05:42;51.90;;;31.53;;
18125;SDS011;53956;52.442;13.284;2022-11-15T00:08:28;55.37;;;33.27;;
18125;SDS011;53956;52.442;13.284;2022-11-15T00:11:14;53.33;;;32.20;;
18125;SDS011;53956;52.442;13.284;2022-11-15T00:14:00;54.50;;;32.80;;
18125;SDS011;53956;52.442;13.284;2022-11-15T00:16:46;52.43;;;31.97;;
18125;SDS011;53956;52.442;13.284;2022-11-15T00:19:33;52.90;;;31.60;;
18125;SDS011;53956;52.442;13.284;2022-11-15T00:22:19;51.63;;;32.10;;
18125;SDS011;53956;52.442;13.284;2022-11-15T00:25:05;52.37;;;31.90;;
18125;SDS011;53956;52.442;13.284;2022-11-15T00:27:54;50.57;;;32.13;;
18125;SDS011;53956;52.442;13.284;2022-11-15T00:30:39;52.17;;;30.77;;
18125;SDS011;53956;52.442;13.284;2022-11-15T00:33:25;50.20;;;31.10;;
18125;SDS011;53956;52.442;13.284;2022-11-15T00:36:12;52.13;;;32.50;;
18125;SDS011;53956;52.442;13.284;2022-11-15T00:38:57;54.00;;;32.30;;
18125;SDS011;53956;52.442;13.284;2022-11-15T00:41:43;53.50;;;32.00;;
18125;SDS011;53956;52.442;13.284;2022-11-15T00:44:28;51.33;;;32.87;;
18125;SDS011;53956;52.442;13.284;2022-11-15T00:47:14;52.70;;;33.03;;
18125;SDS011;53956;52.442;13.284;2022-11-15T00:50:00;55.50;;;33.90;;
18125;SDS011;53956;52.442;13.284;2022-11-15T00:52:46;54.83;;;33.27;;
18125;SDS011;53956;52.442;13.284;2022-11-15T00:55:32;57.30;;;34.27;;
18125;SDS011;53956;52.442;13.284;2022-11-15T00:58:18;50.30;;;32.87;;
18125;SDS011;53956;52.442;13.284;2022-11-15T01:01:07;55.63;;;33.27;;
18125;SDS011;53956;52.442;13.284;2022-11-15T01:03:53;53.73;;;32.87;;
18125;SDS011;53956;52.442;13.284;2022-11-15T01:06:39;55.73;;;33.07;;
18125;SDS011;53956;52.442;13.284;2022-11-15T01:09:25;52.23;;;32.47;;
18125;SDS011;53956;52.442;13.284;2022-11-15T01:12:10;54.93;;;33.77;;
18125;SDS011;53956;52.442;13.284;2022-11-15T01:14:56;51.20;;;32.43;;
18125;SDS011;53956;52.442;13.284;2022-11-15T01:17:41;52.20;;;31.60;;
18125;SDS011;53956;52.442;13.284;2022-11-15T01:20:27;55.40;;;33.43;;
18125;SDS011;53956;52.442;13.284;2022-11-15T01:23:12;54.13;;;32.70;;
18125;SDS011;53956;52.442;13.284;2022-11-15T01:25:59;53.20;;;33.27;;
18125;SDS011;53956;52.442;13.284;2022-11-15T01:28:45;53.53;;;32.03;;
18125;SDS011;53956;52.442;13.284;2022-11-15T01:31:30;52.40;;;32.07;;
18125;SDS011;53956;52.442;13.284;2022-11-15T01:34:16;55.40;;;33.60;;
18125;SDS011;53956;52.442;13.284;2022-11-15T01:37:02;51.87;;;32.67;;
18125;SDS011;53956;52.442;13.284;2022-11-15T01:39:47;55.33;;;33.63;;
18125;SDS011;53956;52.442;13.284;2022-11-15T01:42:34;54.80;;;32.60;;
18125;SDS011;53956;52.442;13.284;2022-11-15T01:45:19;53.47;;;32.17;;
18125;SDS011;53956;52.442;13.284;2022-11-15T01:48:07;53.07;;;32.97;;
18125;SDS011;53956;52.442;13.284;2022-11-15T01:50:55;55.00;;;34.10;;
18125;SDS011;53956;52.442;13.284;2022-11-15T01:53:41;52.13;;;32.70;;
18125;SDS011;53956;52.442;13.284;2022-11-15T01:56:30;54.37;;;33.47;;
18125;SDS011;53956;52.442;13.284;2022-11-15T01:59:21;52.37;;;32.97;;
18125;SDS011;53956;52.442;13.284;2022-11-15T02:02:08;51.83;;;32.20;;
18125;SDS011;53956;52.442;13.284;2022-11-15T02:04:53;52.60;;;32.47;;
18125;SDS011;53956;52.442;13.284;2022-11-15T02:07:39;54.80;;;33.33;;
18125;SDS011;53956;52.442;13.284;2022-11-15T02:10:24;53.43;;;32.57;;
18125;SDS011;53956;52.442;13.284;2022-11-15T02:13:10;53.60;;;32.70;;
18125;SDS011;53956;52.442;13.284;2022-11-15T02:15:59;53.50;;;33.00;;
18125;SDS011;53956;52.442;13.284;2022-11-15T02:18:56;53.67;;;32.20;;
18125;SDS011;53956;52.442;13.284;2022-11-15T02:21:48;57.57;;;33.50;;
18125;SDS011;53956;52.442;13.284;2022-11-15T02:24:59;56.87;;;33.67;;
18125;SDS011;53956;52.442;13.284;2022-11-15T02:27:54;56.00;;;33.27;;
18125;SDS011;53956;52.442;13.284;2022-11-15T02:30:53;53.97;;;32.73;;
18125;SDS011;53956;52.442;13.284;2022-11-15T02:33:47;55.43;;;33.00;;
18125;SDS011;53956;52.442;13.284;2022-11-15T02:36:42;53.97;;;33.10;;
18125;SDS011;53956;52.442;13.284;2022-11-15T02:39:34;56.90;;;34.00;;
18125;SDS011;53956;52.442;13.284;2022-11-15T02:42:25;52.80;;;32.93;;
18125;SDS011;53956;52.442;13.284;2022-11-15T02:45:34;56.63;;;34.00;;
18125;SDS011;53956;52.442;13.284;2022-11-15T02:48:24;53.63;;;32.17;;
18125;SDS011;53956;52.442;13.284;2022-11-15T02:51:10;54.10;;;32.83;;
18125;SDS011;53956;52.442;13.284;2022-11-15T02:53:57;56.43;;;33.03;;
18125;SDS011;53956;52.442;13.284;2022-11-15T02:56:42;52.70;;;32.57;;
18125;SDS011;53956;52.442;13.284;2022-11-15T02:59:39;56.37;;;33.77;;
18125;SDS011;53956;52.442;13.284;2022-11-15T03:05:53;52.90;;;32.90;;
18125;SDS011;53956;52.442;13.284;2022-11-15T03:08:50;55.57;;;32.67;;
18125;SDS011;53956;52.442;13.284;2022-11-15T03:11:43;52.67;;;32.07;;
18125;SDS011;53956;52.442;13.284;2022-11-15T03:14:33;53.60;;;32.50;;
18125;SDS011;53956;52.442;13.284;2022-11-15T03:17:22;55.13;;;32.90;;
18125;SDS011;53956;52.442;13.284;2022-11-15T03:20:10;57.17;;;33.93;;
18125;SDS011;53956;52.442;13.284;2022-11-15T03:23:02;54.17;;;32.63;;
18125;SDS011;53956;52.442;13.284;2022-11-15T03:25:50;55.87;;;32.73;;
18125;SDS011;53956;52.442;13.284;2022-11-15T03:28:37;54.27;;;32.03;;
18125;SDS011;53956;52.442;13.284;2022-11-15T03:31:26;55.83;;;32.27;;
18125;SDS011;53956;52.442;13.284;2022-11-15T03:34:32;55.53;;;32.67;;
18125;SDS011;53956;52.442;13.284;2022-11-15T03:37:22;55.40;;;32.97;;
18125;SDS011;53956;52.442;13.284;2022-11-15T03:40:11;53.77;;;31.87;;
18125;SDS011;53956;52.442;13.284;2022-11-15T03:42:59;51.47;;;31.87;;
18125;SDS011;53956;52.442;13.284;2022-11-15T03:45:50;56.37;;;32.47;;
18125;SDS011;53956;52.442;13.284;2022-11-15T03:48:40;53.93;;;31.93;;
18125;SDS011;53956;52.442;13.284;2022-11-15T03:51:30;58.60;;;32.47;;
18125;SDS011;53956;52.442;13.284;2022-11-15T03:54:15;54.37;;;31.73;;
18125;SDS011;53956;52.442;13.284;2022-11-15T03:57:02;51.43;;;31.43;;
18125;SDS011;53956;52.442;13.284;2022-11-15T03:59:47;50.10;;;30.70;;
18125;SDS011;53956;52.442;13.284;2022-11-15T04:02:33;50.57;;;31.13;;
18125;SDS011;53956;52.442;13.284;2022-11-15T04:05:18;49.33;;;30.67;;
18125;SDS011;53956;52.442;13.284;2022-11-15T04:08:03;51.73;;;32.43;;
18125;SDS011;53956;52.442;13.284;2022-11-15T04:10:49;53.50;;;31.07;;
18125;SDS011;53956;52.442;13.284;2022-11-15T04:13:37;51.70;;;31.27;;
18125;SDS011;53956;52.442;13.284;2022-11-15T04:16:23;53.20;;;31.10;;
18125;SDS011;53956;52.442;13.284;2022-11-15T04:19:08;50.23;;;31.47;;
18125;SDS011;53956;52.442;13.284;2022-11-15T04:22:25;54.37;;;31.53;;
18125;SDS011;53956;52.442;13.284;2022-11-15T04:25:28;53.70;;;31.70;;
18125;SDS011;53956;52.442;13.284;2022-11-15T04:28:14;52.20;;;32.23;;
18125;SDS011;53956;52.442;13.284;2022-11-15T04:31:00;52.13;;;30.87;;
18125;SDS011;53956;52.442;13.284;2022-11-15T04:33:46;51.50;;;31.33;;
18125;SDS011;53956;52.442;13.284;2022-11-15T04:36:31;53.97;;;31.40;;
18125;SDS011;53956;52.442;13.284;2022-11-15T04:39:34;49.73;;;29.17;;
18125;SDS011;53956;52.442;13.284;2022-11-15T04:42:19;49.77;;;29.70;;
18125;SDS011;53956;52.442;13.284;2022-11-15T04:45:05;53.63;;;32.07;;
18125;SDS011;53956;52.442;13.284;2022-11-15T04:47:52;54.70;;;31.97;;
18125;SDS011;53956;52.442;13.284;2022-11-15T04:50:38;54.17;;;32.30;;
18125;SDS011;53956;52.442;13.284;2022-11-15T04:53:23;57.80;;;32.63;;
18125;SDS011;53956;52.442;13.284;2022-11-15T04:56:09;54.50;;;32.43;;
18125;SDS011;53956;52.442;13.284;2022-11-15T04:58:55;52.20;;;31.23;;
18125;SDS011;53956;52.442;13.284;2022-11-15T05:01:40;51.03;;;31.47;;
18125;SDS011;53956;52.442;13.284;2022-11-15T05:04:27;51.80;;;31.53;;
18125;SDS011;53956;52.442;13.284;2022-11-15T05:07:11;52.67;;;31.37;;
18125;SDS011;53956;52.442;13.284;2022-11-15T05:09:57;50.80;;;29.87;;
18125;SDS011;53956;52.442;13.284;2022-11-15T05:12:44;52.97;;;31.30;;
18125;SDS011;53956;52.442;13.284;2022-11-15T05:15:31;50.00;;;29.97;;
18125;SDS011;53956;52.442;13.284;2022-11-15T05:18:16;50.17;;;29.67;;
18125;SDS011;53956;52.442;13.284;2022-11-15T05:21:04;49.33;;;30.20;;
18125;SDS011;53956;52.442;13.284;2022-11-15T05:23:51;51.80;;;30.57;;
18125;SDS011;53956;52.442;13.284;2022-11-15T05:26:36;47.50;;;29.00;;
18125;SDS011;53956;52.442;13.284;2022-11-15T05:29:22;52.60;;;31.63;;
18125;SDS011;53956;52.442;13.284;2022-11-15T05:32:08;49.20;;;29.80;;
18125;SDS011;53956;52.442;13.284;2022-11-15T05:34:54;49.50;;;30.53;;
18125;SDS011;53956;52.442;13.284;2022-11-15T05:37:41;47.20;;;28.67;;
18125;SDS011;53956;52.442;13.284;2022-11-15T05:40:26;47.33;;;29.20;;
18125;SDS011;53956;52.442;13.284;2022-11-15T05:43:14;49.40;;;29.70;;
18125;SDS011;53956;52.442;13.284;2022-11-15T05:45:59;50.87;;;30.00;;
18125;SDS011;53956;52.442;13.284;2022-11-15T05:48:47;51.80;;;30.13;;
18125;SDS011;53956;52.442;13.284;2022-11-15T05:51:34;47.33;;;28.63;;
18125;SDS011;53956;52.442;13.284;2022-11-15T05:54:21;47.23;;;28.43;;
18125;SDS011;53956;52.442;13.284;2022-11-15T05:57:08;49.43;;;29.73;;
18125;SDS011;53956;52.442;13.284;2022-11-15T05:59:54;47.83;;;29.57;;
18125;SDS011;53956;52.442;13.284;2022-11-15T06:02:39;46.47;;;29.20;;
18125;SDS011;53956;52.442;13.284;2022-11-15T06:05:25;50.40;;;29.83;;
18125;SDS011;53956;52.442;13.284;2022-11-15T06:08:11;47.37;;;29.13;;
18125;SDS011;53956;52.442;13.284;2022-11-15T06:11:02;47.27;;;29.37;;
18125;SDS011;53956;52.442;13.284;2022-11-15T06:13:48;47.03;;;29.20;;
18125;SDS011;53956;52.442;13.284;2022-11-15T06:16:33;48.23;;;29.93;;
18125;SDS011;53956;52.442;13.284;2022-11-15T06:19:19;51.73;;;30.60;;
18125;SDS011;53956;52.442;13.284;2022-11-15T06:22:04;48.83;;;29.73;;
18125;SDS011;53956;52.442;13.284;2022-11-15T06:24:50;49.33;;;29.23;;
18125;SDS011;53956;52.442;13.284;2022-11-15T06:27:37;49.97;;;29.03;;
18125;SDS011;53956;52.442;13.284;2022-11-15T06:30:23;51.17;;;30.73;;
18125;SDS011;53956;52.442;13.284;2022-11-15T06:33:09;49.20;;;30.37;;
18125;SDS011;53956;52.442;13.284;2022-11-15T06:35:55;50.70;;;29.77;;
18125;SDS011;53956;52.442;13.284;2022-11-15T06:38:40;48.77;;;29.87;;
18125;SDS011;53956;52.442;13.284;2022-11-15T06:41:26;48.23;;;29.67;;
18125;SDS011;53956;52.442;13.284;2022-11-15T06:44:13;51.30;;;29.47;;
18125;SDS011;53956;52.442;13.284;2022-11-15T06:46:58;48.97;;;30.23;;
18125;SDS011;53956;52.442;13.284;2022-11-15T06:49:44;49.97;;;29.73;;
18125;SDS011;53956;52.442;13.284;2022-11-15T06:52:29;55.97;;;30.83;;
18125;SDS011;53956;52.442;13.284;2022-11-15T06:55:16;52.60;;;29.60;;
18125;SDS011;53956;52.442;13.284;2022-11-15T06:58:01;51.13;;;29.40;;
18125;SDS011;53956;52.442;13.284;2022-11-15T07:00:48;49.23;;;29.30;;
18125;SDS011;53956;52.442;13.284;2022-11-15T07:03:34;52.13;;;30.00;;
18125;SDS011;53956;52.442;13.284;2022-11-15T07:06:20;53.27;;;30.63;;
18125;SDS011;53956;52.442;13.284;2022-11-15T07:09:06;50.23;;;30.87;;
18125;SDS011;53956;52.442;13.284;2022-11-15T07:11:51;48.57;;;29.57;;
18125;SDS011;53956;52.442;13.284;2022-11-15T07:14:37;50.47;;;30.23;;
18125;SDS011;53956;52.442;13.284;2022-11-15T07:17:23;52.13;;;30.53;;
18125;SDS011;53956;52.442;13.284;2022-11-15T07:20:09;47.03;;;28.60;;
18125;SDS011;53956;52.442;13.284;2022-11-15T07:22:59;49.87;;;30.00;;
18125;SDS011;53956;52.442;13.284;2022-11-15T07:25:44;49.83;;;30.13;;
18125;SDS011;53956;52.442;13.284;2022-11-15T07:28:30;52.50;;;29.73;;
18125;SDS011;53956;52.442;13.284;2022-11-15T07:31:15;46.90;;;28.40;;
18125;SDS011;53956;52.442;13.284;2022-11-15T07:34:02;51.23;;;30.63;;
18125;SDS011;53956;52.442;13.284;2022-11-15T07:36:48;52.30;;;29.93;;
18125;SDS011;53956;52.442;13.284;2022-11-15T07:39:33;51.20;;;30.20;;
18125;SDS011;53956;52.442;13.284;2022-11-15T07:42:19;49.43;;;31.17;;
18125;SDS011;53956;52.442;13.284;2022-11-15T07:45:22;49.27;;;29.90;;
18125;SDS011;53956;52.442;13.284;2022-11-15T07:48:09;46.97;;;29.33;;
18125;SDS011;53956;52.442;13.284;2022-11-15T07:50:56;47.63;;;29.03;;
18125;SDS011;53956;52.442;13.284;2022-11-15T07:53:41;48.80;;;29.87;;
18125;SDS011;53956;52.442;13.284;2022-11-15T07:56:27;50.37;;;30.30;;
18125;SDS011;53956;52.442;13.284;2022-11-15T07:59:13;49.60;;;30.13;;
18125;SDS011;53956;52.442;13.284;2022-11-15T08:01:58;49.77;;;29.90;;
18125;SDS011;53956;52.442;13.284;2022-11-15T08:04:43;46.40;;;29.13;;
18125;SDS011;53956;52.442;13.284;2022-11-15T08:07:30;44.40;;;28.73;;
18125;SDS011;53956;52.442;13.284;2022-11-15T08:10:16;46.90;;;29.20;;
18125;SDS011;53956;52.442;13.284;2022-11-15T08:13:04;43.77;;;28.07;;
18125;SDS011;53956;52.442;13.284;2022-11-15T08:15:51;45.60;;;29.20;;
18125;SDS011;53956;52.442;13.284;2022-11-15T08:18:36;46.37;;;29.00;;
18125;SDS011;53956;52.442;13.284;2022-11-15T08:21:22;47.10;;;29.13;;
18125;SDS011;53956;52.442;13.284;2022-11-15T08:24:09;44.90;;;28.17;;
18125;SDS011;53956;52.442;13.284;2022-11-15T08:26:55;44.07;;;28.77;;
18125;SDS011;53956;52.442;13.284;2022-11-15T08:29:41;44.43;;;27.63;;
18125;SDS011;53956;52.442;13.284;2022-11-15T08:32:27;45.30;;;28.33;;
18125;SDS011;53956;52.442;13.284;2022-11-15T08:35:12;43.73;;;27.83;;
18125;SDS011;53956;52.442;13.284;2022-11-15T08:37:58;39.33;;;26.50;;
18125;SDS011;53956;52.442;13.284;2022-11-15T08:40:45;42.60;;;27.40;;
18125;SDS011;53956;52.442;13.284;2022-11-15T08:43:30;39.73;;;25.53;;
18125;SDS011;53956;52.442;13.284;2022-11-15T08:46:16;38.67;;;25.20;;
18125;SDS011;53956;52.442;13.284;2022-11-15T08:49:02;38.73;;;25.30;;
18125;SDS011;53956;52.442;13.284;2022-11-15T08:51:47;38.83;;;24.70;;
18125;SDS011;53956;52.442;13.284;2022-11-15T08:54:32;39.77;;;24.50;;
18125;SDS011;53956;52.442;13.284;2022-11-15T08:57:19;38.83;;;24.97;;
18125;SDS011;53956;52.442;13.284;2022-11-15T09:00:05;36.30;;;24.10;;
18125;SDS011;53956;52.442;13.284;2022-11-15T09:02:52;39.07;;;23.67;;
18125;SDS011;53956;52.442;13.284;2022-11-15T09:05:37;36.27;;;23.67;;
18125;SDS011;53956;52.442;13.284;2022-11-15T09:08:23;37.93;;;24.40;;
18125;SDS011;53956;52.442;13.284;2022-11-15T09:11:09;37.73;;;23.33;;
18125;SDS011;53956;52.442;13.284;2022-11-15T09:13:57;36.90;;;23.53;;
18125;SDS011;53956;52.442;13.284;2022-11-15T09:16:42;48.77;;;25.43;;
18125;SDS011;53956;52.442;13.284;2022-11-15T09:19:28;39.37;;;23.33;;
18125;SDS011;53956;52.442;13.284;2022-11-15T09:22:13;40.37;;;24.47;;
18125;SDS011;53956;52.442;13.284;2022-11-15T09:24:59;37.03;;;24.00;;
18125;SDS011;53956;52.442;13.284;2022-11-15T09:27:44;40.97;;;24.50;;
18125;SDS011;53956;52.442;13.284;2022-11-15T09:30:31;38.17;;;23.07;;
18125;SDS011;53956;52.442;13.284;2022-11-15T09:33:16;34.70;;;22.17;;
18125;SDS011;53956;52.442;13.284;2022-11-15T09:36:02;35.17;;;23.30;;
18125;SDS011;53956;52.442;13.284;2022-11-15T09:38:49;33.63;;;22.53;;
18125;SDS011;53956;52.442;13.284;2022-11-15T09:41:39;37.60;;;23.67;;
18125;SDS011;53956;52.442;13.284;2022-11-15T09:44:58;33.37;;;21.83;;
18125;SDS011;53956;52.442;13.284;2022-11-15T09:51:08;35.27;;;23.97;;
18125;SDS011;53956;52.442;13.284;2022-11-15T09:53:41;35.10;;;23.73;;
18125;SDS011;53956;52.442;13.284;2022-11-15T09:56:16;37.93;;;23.93;;
18125;SDS011;53956;52.442;13.284;2022-11-15T09:58:53;37.53;;;22.93;;
18125;SDS011;53956;52.442;13.284;2022-11-15T10:01:30;38.00;;;23.20;;
18125;SDS011;53956;52.442;13.284;2022-11-15T10:04:05;34.23;;;22.27;;
18125;SDS011;53956;52.442;13.284;2022-11-15T10:06:32;34.10;;;21.93;;
18125;SDS011;53956;52.442;13.284;2022-11-15T10:09:06;35.80;;;23.00;;
18125;SDS011;53956;52.442;13.284;2022-11-15T10:11:41;33.20;;;21.87;;
18125;SDS011;53956;52.442;13.284;2022-11-15T10:14:09;34.40;;;21.83;;
18125;SDS011;53956;52.442;13.284;2022-11-15T10:16:44;32.50;;;21.73;;
18125;SDS011;53956;52.442;13.284;2022-11-15T10:19:37;31.97;;;21.23;;
18125;SDS011;53956;52.442;13.284;2022-11-15T10:22:24;36.33;;;22.27;;
18125;SDS011;53956;52.442;13.284;2022-11-15T10:24:59;32.10;;;21.03;;
18125;SDS011;53956;52.442;13.284;2022-11-15T10:27:37;32.53;;;20.73;;
18125;SDS011;53956;52.442;13.284;2022-11-15T10:30:08;28.80;;;19.60;;
18125;SDS011;53956;52.442;13.284;2022-11-15T10:32:38;30.73;;;20.10;;
18125;SDS011;53956;52.442;13.284;2022-11-15T10:35:17;32.50;;;20.43;;
18125;SDS011;53956;52.442;13.284;2022-11-15T10:37:49;33.07;;;21.43;;
18125;SDS011;53956;52.442;13.284;2022-11-15T10:40:17;33.70;;;20.87;;
18125;SDS011;53956;52.442;13.284;2022-11-15T10:42:46;34.00;;;21.37;;
18125;SDS011;53956;52.442;13.284;2022-11-15T10:45:22;31.37;;;21.07;;
18125;SDS011;53956;52.442;13.284;2022-11-15T10:47:51;32.33;;;21.23;;
18125;SDS011;53956;52.442;13.284;2022-11-15T10:50:29;31.80;;;20.87;;
18125;SDS011;53956;52.442;13.284;2022-11-15T10:52:57;33.17;;;21.50;;
18125;SDS011;53956;52.442;13.284;2022-11-15T10:55:26;34.43;;;21.50;;
18125;SDS011;53956;52.442;13.284;2022-11-15T10:57:55;31.47;;;21.73;;
18125;SDS011;53956;52.442;13.284;2022-11-15T11:00:34;34.87;;;22.37;;
18125;SDS011;53956;52.442;13.284;2022-11-15T11:03:05;31.83;;;21.33;;
18125;SDS011;53956;52.442;13.284;2022-11-15T11:05:47;29.23;;;19.63;;
18125;SDS011;53956;52.442;13.284;2022-11-15T11:08:20;33.27;;;20.40;;
18125;SDS011;53956;52.442;13.284;2022-11-15T11:10:52;34.20;;;21.27;;
18125;SDS011;53956;52.442;13.284;2022-11-15T11:13:21;34.53;;;21.50;;
18125;SDS011;53956;52.442;13.284;2022-11-15T11:15:51;33.13;;;21.80;;
18125;SDS011;53956;52.442;13.284;2022-11-15T11:18:22;32.53;;;20.57;;
18125;SDS011;53956;52.442;13.284;2022-11-15T11:20:56;32.30;;;19.73;;
18125;SDS011;53956;52.442;13.284;2022-11-15T11:23:36;31.17;;;19.63;;
18125;SDS011;53956;52.442;13.284;2022-11-15T11:26:15;29.17;;;19.53;;
18125;SDS011;53956;52.442;13.284;2022-11-15T11:28:57;30.93;;;20.57;;
18125;SDS011;53956;52.442;13.284;2022-11-15T11:31:32;31.63;;;20.87;;
18125;SDS011;53956;52.442;13.284;2022-11-15T11:34:04;32.80;;;19.57;;
18125;SDS011;53956;52.442;13.284;2022-11-15T11:36:42;27.80;;;19.50;;
18125;SDS011;53956;52.442;13.284;2022-11-15T11:39:18;30.73;;;19.40;;
18125;SDS011;53956;52.442;13.284;2022-11-15T11:41:56;31.67;;;20.17;;
18125;SDS011;53956;52.442;13.284;2022-11-15T11:44:31;30.27;;;19.60;;
18125;SDS011;53956;52.442;13.284;2022-11-15T11:47:01;28.87;;;19.57;;
18125;SDS011;53956;52.442;13.284;2022-11-15T11:49:35;29.77;;;18.87;;
18125;SDS011;53956;52.442;13.284;2022-11-15T11:52:09;28.80;;;18.27;;
18125;SDS011;53956;52.442;13.284;2022-11-15T11:54:43;28.23;;;17.93;;
18125;SDS011;53956;52.442;13.284;2022-11-15T11:57:18;23.93;;;16.87;;
18125;SDS011;53956;52.442;13.284;2022-11-15T11:59:53;24.87;;;16.57;;
18125;SDS011;53956;52.442;13.284;2022-11-15T12:02:26;24.43;;;15.87;;
18125;SDS011;53956;52.442;13.284;2022-11-15T12:04:57;21.23;;;15.10;;
18125;SDS011;53956;52.442;13.284;2022-11-15T12:07:35;23.50;;;15.87;;
18125;SDS011;53956;52.442;13.284;2022-11-15T12:10:08;24.40;;;14.77;;
18125;SDS011;53956;52.442;13.284;2022-11-15T12:12:43;22.87;;;14.70;;
18125;SDS011;53956;52.442;13.284;2022-11-15T12:15:15;22.40;;;14.27;;
18125;SDS011;53956;52.442;13.284;2022-11-15T12:17:46;21.47;;;14.87;;
18125;SDS011;53956;52.442;13.284;2022-11-15T12:20:15;21.33;;;15.03;;
18125;SDS011;53956;52.442;13.284;2022-11-15T12:22:46;23.07;;;14.80;;
18125;SDS011;53956;52.442;13.284;2022-11-15T12:25:18;21.37;;;14.27;;
18125;SDS011;53956;52.442;13.284;2022-11-15T12:27:48;20.37;;;14.27;;
18125;SDS011;53956;52.442;13.284;2022-11-15T12:30:21;20.23;;;14.63;;
18125;SDS011;53956;52.442;13.284;2022-11-15T12:32:49;21.73;;;14.70;;
18125;SDS011;53956;52.442;13.284;2022-11-15T12:35:21;21.57;;;14.60;;
18125;SDS011;53956;52.442;13.284;2022-11-15T12:37:54;22.50;;;15.00;;
18125;SDS011;53956;52.442;13.284;2022-11-15T12:40:32;21.03;;;14.30;;
18125;SDS011;53956;52.442;13.284;2022-11-15T12:43:04;20.67;;;13.80;;
18125;SDS011;53956;52.442;13.284;2022-11-15T12:46:04;20.30;;;11.90;;
18125;SDS011;53956;52.442;13.284;2022-11-15T12:54:50;18.27;;;12.70;;
18125;SDS011;53956;52.442;13.284;2022-11-15T12:57:35;22.47;;;14.23;;
18125;SDS011;53956;52.442;13.284;2022-11-15T13:03:28;20.70;;;13.50;;
18125;SDS011;53956;52.442;13.284;2022-11-15T13:05:59;22.47;;;13.00;;
18125;SDS011;53956;52.442;13.284;2022-11-15T13:17:12;16.33;;;11.30;;
18125;SDS011;53956;52.442;13.284;2022-11-15T13:19:53;17.37;;;11.43;;
18125;SDS011;53956;52.442;13.284;2022-11-15T13:22:24;18.50;;;11.73;;
18125;SDS011;53956;52.442;13.284;2022-11-15T13:25:15;16.10;;;11.43;;
18125;SDS011;53956;52.442;13.284;2022-11-15T13:27:46;15.10;;;11.47;;
18125;SDS011;53956;52.442;13.284;2022-11-15T13:30:15;17.90;;;12.10;;
18125;SDS011;53956;52.442;13.284;2022-11-15T13:32:46;15.83;;;11.40;;
18125;SDS011;53956;52.442;13.284;2022-11-15T13:35:17;16.20;;;11.27;;
18125;SDS011;53956;52.442;13.284;2022-11-15T13:37:46;15.77;;;10.97;;
18125;SDS011;53956;52.442;13.284;2022-11-15T13:40:21;19.17;;;10.60;;
18125;SDS011;53956;52.442;13.284;2022-11-15T13:42:55;16.40;;;11.17;;
18125;SDS011;53956;52.442;13.284;2022-11-15T13:45:22;17.53;;;11.53;;
18125;SDS011;53956;52.442;13.284;2022-11-15T13:47:51;17.30;;;11.13;;
18125;SDS011;53956;52.442;13.284;2022-11-15T13:50:20;20.03;;;11.50;;
18125;SDS011;53956;52.442;13.284;2022-11-15T13:52:48;18.13;;;12.03;;
18125;SDS011;53956;52.442;13.284;2022-11-15T13:55:17;16.90;;;12.33;;
18125;SDS011;53956;52.442;13.284;2022-11-15T13:57:48;18.97;;;11.97;;
18125;SDS011;53956;52.442;13.284;2022-11-15T14:00:32;19.00;;;12.07;;
18125;SDS011;53956;52.442;13.284;2022-11-15T14:03:05;18.83;;;13.00;;
18125;SDS011;53956;52.442;13.284;2022-11-15T14:05:39;21.47;;;13.03;;
18125;SDS011;53956;52.442;13.284;2022-11-15T14:08:12;20.57;;;13.40;;
18125;SDS011;53956;52.442;13.284;2022-11-15T14:10:48;21.40;;;12.30;;
18125;SDS011;53956;52.442;13.284;2022-11-15T14:13:31;20.97;;;13.20;;
18125;SDS011;53956;52.442;13.284;2022-11-15T14:18:43;20.30;;;13.13;;
18125;SDS011;53956;52.442;13.284;2022-11-15T14:21:12;21.67;;;14.07;;
18125;SDS011;53956;52.442;13.284;2022-11-15T14:23:39;21.83;;;14.70;;
18125;SDS011;53956;52.442;13.284;2022-11-15T14:26:10;22.77;;;14.67;;
18125;SDS011;53956;52.442;13.284;2022-11-15T14:28:52;25.73;;;16.40;;
18125;SDS011;53956;52.442;13.284;2022-11-15T14:31:20;90.80;;;21.40;;
18125;SDS011;53956;52.442;13.284;2022-11-15T14:33:47;25.53;;;16.33;;
18125;SDS011;53956;52.442;13.284;2022-11-15T14:36:14;162.60;;;27.53;;
18125;SDS011;53956;52.442;13.284;2022-11-15T14:38:42;25.37;;;16.37;;
18125;SDS011;53956;52.442;13.284;2022-11-15T14:41:11;29.13;;;15.80;;
18125;SDS011;53956;52.442;13.284;2022-11-15T14:43:44;32.23;;;16.63;;
18125;SDS011;53956;52.442;13.284;2022-11-15T14:46:11;26.30;;;17.40;;
18125;SDS011;53956;52.442;13.284;2022-11-15T14:48:39;26.37;;;16.50;;
18125;SDS011;53956;52.442;13.284;2022-11-15T14:51:09;24.77;;;16.57;;
18125;SDS011;53956;52.442;13.284;2022-11-15T14:53:38;28.17;;;15.83;;
18125;SDS011;53956;52.442;13.284;2022-11-15T14:56:05;24.57;;;15.90;;
18125;SDS011;53956;52.442;13.284;2022-11-15T14:58:32;45.17;;;17.07;;
18125;SDS011;53956;52.442;13.284;2022-11-15T15:00:59;27.80;;;16.13;;
18125;SDS011;53956;52.442;13.284;2022-11-15T15:03:27;58.13;;;19.10;;
18125;SDS011;53956;52.442;13.284;2022-11-15T15:05:55;25.03;;;16.77;;
18125;SDS011;53956;52.442;13.284;2022-11-15T15:08:22;26.63;;;17.80;;
18125;SDS011;53956;52.442;13.284;2022-11-15T15:10:49;27.03;;;17.50;;
18125;SDS011;53956;52.442;13.284;2022-11-15T15:13:16;27.03;;;17.17;;
18125;SDS011;53956;52.442;13.284;2022-11-15T15:15:45;27.67;;;18.23;;
18125;SDS011;53956;52.442;13.284;2022-11-15T15:18:12;26.17;;;17.93;;
18125;SDS011;53956;52.442;13.284;2022-11-15T15:20:40;29.60;;;18.37;;
18125;SDS011;53956;52.442;13.284;2022-11-15T15:23:12;28.53;;;18.00;;
18125;SDS011;53956;52.442;13.284;2022-11-15T15:25:41;28.33;;;17.90;;
18125;SDS011;53956;52.442;13.284;2022-11-15T15:28:08;25.60;;;17.37;;
18125;SDS011;53956;52.442;13.284;2022-11-15T15:30:35;26.10;;;17.73;;
18125;SDS011;53956;52.442;13.284;2022-11-15T15:33:02;29.47;;;18.43;;
18125;SDS011;53956;52.442;13.284;2022-11-15T15:35:30;25.47;;;17.67;;
18125;SDS011;53956;52.442;13.284;2022-11-15T15:37:58;49.17;;;19.10;;
18125;SDS011;53956;52.442;13.284;2022-11-15T15:40:28;37.37;;;18.57;;
18125;SDS011;53956;52.442;13.284;2022-11-15T15:42:56;27.87;;;17.33;;
18125;SDS011;53956;52.442;13.284;2022-11-15T15:45:24;29.60;;;18.10;;
18125;SDS011;53956;52.442;13.284;2022-11-15T15:47:51;24.13;;;16.93;;
18125;SDS011;53956;52.442;13.284;2022-11-15T15:50:22;28.50;;;18.33;;
18125;SDS011;53956;52.442;13.284;2022-11-15T15:52:51;30.20;;;18.40;;
18125;SDS011;53956;52.442;13.284;2022-11-15T15:55:19;31.13;;;18.20;;
18125;SDS011;53956;52.442;13.284;2022-11-15T15:57:47;40.13;;;18.40;;